createdAt,value
2023-09-15T00:00:15.478Z,10.33
2023-09-15T00:01:15.637Z,10.28
2023-09-15T00:02:15.642Z,10.26
2023-09-15T00:03:15.769Z,10.25
2023-09-15T00:04:15.855Z,10.25
2023-09-15T00:05:15.836Z,10.20
2023-09-15T00:06:15.969Z,10.22
2023-09-15T00:07:16.055Z,10.26
2023-09-15T00:08:16.102Z,10.25
2023-09-15T00:09:16.333Z,10.23
2023-09-15T00:10:16.348Z,10.20
2023-09-15T00:11:16.309Z,10.22
2023-09-15T00:12:16.394Z,10.20
2023-09-15T00:13:16.487Z,10.19
2023-09-15T00:14:16.538Z,10.16
2023-09-15T00:15:16.623Z,10.15
2023-09-15T00:16:16.814Z,10.12
2023-09-15T00:17:16.810Z,10.12
2023-09-15T00:18:16.904Z,10.13
2023-09-15T00:19:17.015Z,10.17
2023-09-15T00:20:17.072Z,10.16
2023-09-15T00:21:17.148Z,10.13
2023-09-15T00:22:17.273Z,10.15
2023-09-15T00:23:17.377Z,10.15
2023-09-15T00:24:17.408Z,10.12
2023-09-15T00:25:17.496Z,10.12
2023-09-15T00:26:17.573Z,10.13
2023-09-15T00:27:17.604Z,10.13
2023-09-15T00:28:17.734Z,10.13
2023-09-15T00:29:17.759Z,10.10
2023-09-15T00:30:17.832Z,10.10
2023-09-15T00:31:17.998Z,10.10
2023-09-15T00:32:17.975Z,10.12
2023-09-15T00:33:18.135Z,10.09
2023-09-15T00:34:18.208Z,10.09
2023-09-15T00:35:18.237Z,10.07
2023-09-15T00:36:18.282Z,10.04
2023-09-15T00:37:18.431Z,10.04
2023-09-15T00:38:18.441Z,10.02
2023-09-15T00:39:18.516Z,10.04
2023-09-15T00:40:18.700Z,10.01
2023-09-15T00:41:18.716Z,10.01
2023-09-15T00:42:18.707Z,9.99
2023-09-15T00:43:18.867Z,9.99
2023-09-15T00:44:18.912Z,9.98
2023-09-15T00:45:18.968Z,9.95
2023-09-15T00:46:19.169Z,9.99
2023-09-15T00:47:19.137Z,10.04
2023-09-15T00:48:19.265Z,10.09
2023-09-15T00:49:19.351Z,10.07
2023-09-15T00:50:19.441Z,10.07
2023-09-15T00:51:19.530Z,10.05
2023-09-15T00:52:19.657Z,10.07
2023-09-15T00:53:19.678Z,10.07
2023-09-15T00:54:19.769Z,10.05
2023-09-15T00:55:19.924Z,10.07
2023-09-15T00:56:19.939Z,10.05
2023-09-15T00:57:20.020Z,10.02
2023-09-15T00:58:20.119Z,10.04
2023-09-15T00:59:20.162Z,10.04
2023-09-15T01:00:20.387Z,10.01
2023-09-15T01:01:20.344Z,9.98
2023-09-15T01:02:20.481Z,9.99
2023-09-15T01:03:20.554Z,10.01
2023-09-15T01:04:20.612Z,9.98
2023-09-15T01:05:20.653Z,9.94
2023-09-15T01:06:20.738Z,9.94
2023-09-15T01:07:20.839Z,9.94
2023-09-15T01:08:20.952Z,9.91
2023-09-15T01:09:20.992Z,9.87
2023-09-15T01:10:21.154Z,9.89
2023-09-15T01:11:21.151Z,9.89
2023-09-15T01:12:21.243Z,9.94
2023-09-15T01:13:21.369Z,9.95
2023-09-15T01:14:21.391Z,9.99
2023-09-15T01:15:21.504Z,9.98
2023-09-15T01:16:21.714Z,9.98
2023-09-15T01:17:21.635Z,9.97
2023-09-15T01:18:21.943Z,9.94
2023-09-15T01:19:21.856Z,9.95
2023-09-15T01:20:21.913Z,9.94
2023-09-15T01:21:21.986Z,9.91
2023-09-15T01:22:22.118Z,9.87
2023-09-15T01:23:22.298Z,9.89
2023-09-15T01:24:22.257Z,9.87
2023-09-15T01:25:22.325Z,9.87
2023-09-15T01:26:22.398Z,9.84
2023-09-15T01:27:22.489Z,9.82
2023-09-15T01:28:22.621Z,9.80
2023-09-15T01:29:22.616Z,9.80
2023-09-15T01:30:22.756Z,9.79
2023-09-15T01:31:22.898Z,9.77
2023-09-15T01:32:22.903Z,9.76
2023-09-15T01:33:23.012Z,9.73
2023-09-15T01:34:23.109Z,9.73
2023-09-15T01:35:23.261Z,9.72
2023-09-15T01:36:23.287Z,9.69
2023-09-15T01:37:23.414Z,9.72
2023-09-15T01:38:23.442Z,9.72
2023-09-15T01:39:23.531Z,9.69
2023-09-15T01:40:23.632Z,9.69
2023-09-15T01:41:23.665Z,9.69
2023-09-15T01:42:23.716Z,9.69
2023-09-15T01:43:23.857Z,9.73
2023-09-15T01:44:23.874Z,9.74
2023-09-15T01:45:24.027Z,9.73
2023-09-15T01:46:24.088Z,9.74
2023-09-15T01:47:24.116Z,9.73
2023-09-15T01:48:24.215Z,9.72
2023-09-15T01:49:24.295Z,9.73
2023-09-15T01:50:24.365Z,9.72
2023-09-15T01:51:24.497Z,9.73
2023-09-15T01:52:24.633Z,9.74
2023-09-15T01:53:24.620Z,9.73
2023-09-15T01:54:24.718Z,9.72
2023-09-15T01:55:24.794Z,9.68
2023-09-15T01:56:24.862Z,9.65
2023-09-15T01:57:24.918Z,9.61
2023-09-15T01:58:25.012Z,9.61
2023-09-15T01:59:25.101Z,9.61
2023-09-15T02:00:25.262Z,9.62
2023-09-15T02:01:25.683Z,9.64
2023-09-15T02:02:25.372Z,9.72
2023-09-15T02:03:25.532Z,9.69
2023-09-15T02:04:25.615Z,9.69
2023-09-15T02:05:25.787Z,9.73
2023-09-15T02:06:25.823Z,9.74
2023-09-15T02:07:25.784Z,9.76
2023-09-15T02:08:25.867Z,9.77
2023-09-15T02:09:25.958Z,9.74
2023-09-15T02:10:26.074Z,9.69
2023-09-15T02:11:26.186Z,9.66
2023-09-15T02:12:26.218Z,9.59
2023-09-15T02:13:26.310Z,9.61
2023-09-15T02:14:26.372Z,9.58
2023-09-15T02:15:26.441Z,9.56
2023-09-15T02:16:26.651Z,9.56
2023-09-15T02:17:26.673Z,9.54
2023-09-15T02:18:26.725Z,9.50
2023-09-15T02:19:26.837Z,9.48
2023-09-15T02:20:26.915Z,9.46
2023-09-15T02:21:27.017Z,9.46
2023-09-15T02:22:27.067Z,9.47
2023-09-15T02:23:27.167Z,9.47
2023-09-15T02:24:27.246Z,9.46
2023-09-15T02:25:27.313Z,9.46
2023-09-15T02:26:27.456Z,9.46
2023-09-15T02:27:27.474Z,9.46
2023-09-15T02:28:27.577Z,9.41
2023-09-15T02:29:27.666Z,9.43
2023-09-15T02:30:27.733Z,9.43
2023-09-15T02:31:27.878Z,9.39
2023-09-15T02:32:27.939Z,9.40
2023-09-15T02:33:28.006Z,9.36
2023-09-15T02:34:28.049Z,9.36
2023-09-15T02:35:28.129Z,9.32
2023-09-15T02:36:28.238Z,9.29
2023-09-15T02:37:28.361Z,9.29
2023-09-15T02:38:28.422Z,9.31
2023-09-15T02:39:28.515Z,9.29
2023-09-15T02:40:28.621Z,9.28
2023-09-15T02:41:28.750Z,9.26
2023-09-15T02:42:28.828Z,9.28
2023-09-15T02:43:28.880Z,9.26
2023-09-15T02:44:28.954Z,9.26
2023-09-15T02:45:29.037Z,9.29
2023-09-15T02:46:29.206Z,9.31
2023-09-15T02:47:29.195Z,9.32
2023-09-15T02:48:29.217Z,9.36
2023-09-15T02:49:29.367Z,9.36
2023-09-15T02:50:29.381Z,9.36
2023-09-15T02:51:29.502Z,9.34
2023-09-15T02:52:29.554Z,9.31
2023-09-15T02:53:29.668Z,9.26
2023-09-15T02:54:29.743Z,9.25
2023-09-15T02:55:29.828Z,9.22
2023-09-15T02:56:29.903Z,9.21
2023-09-15T02:57:29.951Z,9.21
2023-09-15T02:58:30.001Z,9.23
2023-09-15T02:59:30.111Z,9.22
2023-09-15T03:00:30.226Z,9.19
2023-09-15T03:01:30.344Z,9.23
2023-09-15T03:02:30.441Z,9.18
2023-09-15T03:03:30.710Z,9.16
2023-09-15T03:04:30.560Z,9.13
2023-09-15T03:05:30.552Z,9.13
2023-09-15T03:06:30.626Z,9.18
2023-09-15T03:07:30.719Z,9.22
2023-09-15T03:08:30.806Z,9.22
2023-09-15T03:09:30.950Z,9.26
2023-09-15T03:10:31.018Z,9.23
2023-09-15T03:11:31.084Z,9.29
2023-09-15T03:12:31.149Z,9.36
2023-09-15T03:13:31.362Z,9.41
2023-09-15T03:14:31.353Z,9.43
2023-09-15T03:15:31.458Z,9.40
2023-09-15T03:16:31.641Z,9.37
2023-09-15T03:17:31.728Z,9.32
2023-09-15T03:18:32.428Z,9.29
2023-09-15T03:19:31.783Z,9.31
2023-09-15T03:20:31.834Z,9.26
2023-09-15T03:21:32.177Z,9.21
2023-09-15T03:22:32.093Z,9.21
2023-09-15T03:23:32.206Z,9.18
2023-09-15T03:24:32.211Z,9.16
2023-09-15T03:25:32.280Z,9.13
2023-09-15T03:26:32.396Z,9.13
2023-09-15T03:27:32.423Z,9.14
2023-09-15T03:28:32.519Z,9.14
2023-09-15T03:29:32.682Z,9.11
2023-09-15T03:30:32.712Z,9.10
2023-09-15T03:31:32.858Z,9.10
2023-09-15T03:32:32.908Z,9.08
2023-09-15T03:33:32.935Z,9.11
2023-09-15T03:34:33.021Z,9.13
2023-09-15T03:35:33.174Z,9.13
2023-09-15T03:36:33.239Z,9.13
2023-09-15T03:37:33.326Z,9.11
2023-09-15T03:38:33.397Z,9.10
2023-09-15T03:39:33.492Z,9.11
2023-09-15T03:40:33.615Z,9.11
2023-09-15T03:41:33.693Z,9.10
2023-09-15T03:42:33.727Z,9.10
2023-09-15T03:43:33.850Z,9.10
2023-09-15T03:44:33.934Z,9.06
2023-09-15T03:45:34.093Z,9.03
2023-09-15T03:46:34.179Z,9.04
2023-09-15T03:47:34.218Z,9.03
2023-09-15T03:48:34.270Z,9.02
2023-09-15T03:49:34.361Z,9.02
2023-09-15T03:50:34.425Z,9.06
2023-09-15T03:51:34.534Z,9.08
2023-09-15T03:52:34.678Z,9.08
2023-09-15T03:53:34.803Z,9.08
2023-09-15T03:54:34.824Z,9.08
2023-09-15T03:55:34.871Z,9.08
2023-09-15T03:56:34.998Z,9.04
2023-09-15T03:57:35.068Z,9.02
2023-09-15T03:58:35.134Z,8.95
2023-09-15T03:59:35.228Z,8.94
2023-09-15T04:00:35.316Z,8.92
2023-09-15T04:01:35.515Z,8.97
2023-09-15T04:02:35.519Z,8.97
2023-09-15T04:03:35.596Z,8.92
2023-09-15T04:04:35.678Z,8.89
2023-09-15T04:05:35.743Z,8.88
2023-09-15T04:06:35.788Z,8.89
2023-09-15T04:07:35.886Z,8.87
2023-09-15T04:08:36.010Z,8.88
2023-09-15T04:09:36.063Z,8.92
2023-09-15T04:10:36.297Z,8.94
2023-09-15T04:11:36.256Z,8.94
2023-09-15T04:12:36.359Z,8.95
2023-09-15T04:13:36.423Z,8.95
2023-09-15T04:14:36.514Z,8.94
2023-09-15T04:15:36.573Z,8.94
2023-09-15T04:16:36.853Z,8.92
2023-09-15T04:17:36.840Z,8.94
2023-09-15T04:18:36.836Z,8.94
2023-09-15T04:19:46.445Z,8.92
2023-09-15T04:20:46.030Z,8.94
2023-09-15T04:21:37.030Z,8.92
2023-09-15T04:22:37.088Z,8.91
2023-09-15T04:23:37.216Z,8.88
2023-09-15T04:24:37.336Z,8.88
2023-09-15T04:25:37.393Z,8.88
2023-09-15T04:26:37.439Z,8.85
2023-09-15T04:27:37.545Z,8.84
2023-09-15T04:28:37.648Z,8.84
2023-09-15T04:29:37.710Z,8.85
2023-09-15T04:30:37.954Z,8.87
2023-09-15T04:31:37.896Z,8.87
2023-09-15T04:32:37.943Z,8.84
2023-09-15T04:33:38.013Z,8.84
2023-09-15T04:34:38.051Z,8.85
2023-09-15T04:35:38.164Z,8.91
2023-09-15T04:36:38.767Z,8.92
2023-09-15T04:37:38.296Z,8.92
2023-09-15T04:38:38.465Z,8.89
2023-09-15T04:39:38.432Z,8.92
2023-09-15T04:40:39.040Z,8.89
2023-09-15T04:41:38.626Z,8.91
2023-09-15T04:42:38.843Z,8.87
2023-09-15T04:43:38.804Z,8.88
2023-09-15T04:44:38.901Z,8.84
2023-09-15T04:45:38.987Z,8.84
2023-09-15T04:46:39.281Z,8.81
2023-09-15T04:47:39.155Z,8.78
2023-09-15T04:48:39.213Z,8.76
2023-09-15T04:49:39.290Z,8.78
2023-09-15T04:50:39.399Z,8.78
2023-09-15T04:51:39.460Z,8.78
2023-09-15T04:52:39.548Z,8.73
2023-09-15T04:53:39.617Z,8.71
2023-09-15T04:54:39.753Z,8.71
2023-09-15T04:55:39.804Z,8.74
2023-09-15T04:56:39.937Z,8.76
2023-09-15T04:57:39.989Z,8.74
2023-09-15T04:58:40.084Z,8.71
2023-09-15T04:59:40.135Z,8.71
2023-09-15T05:00:40.256Z,8.71
2023-09-15T05:01:40.390Z,8.71
2023-09-15T05:02:40.397Z,8.74
2023-09-15T05:03:40.610Z,8.81
2023-09-15T05:04:40.663Z,8.84
2023-09-15T05:05:40.678Z,8.82
2023-09-15T05:06:40.773Z,8.78
2023-09-15T05:07:40.883Z,8.74
2023-09-15T05:08:40.995Z,8.70
2023-09-15T05:09:41.045Z,8.67
2023-09-15T05:10:41.122Z,8.69
2023-09-15T05:11:41.213Z,8.70
2023-09-15T05:12:41.322Z,8.70
2023-09-15T05:13:41.399Z,8.67
2023-09-15T05:14:41.466Z,8.67
2023-09-15T05:15:41.551Z,8.70
2023-09-15T05:16:41.658Z,8.70
2023-09-15T05:17:41.739Z,8.67
2023-09-15T05:18:41.803Z,8.70
2023-09-15T05:19:41.846Z,8.69
2023-09-15T05:20:41.941Z,8.69
2023-09-15T05:21:42.033Z,8.69
2023-09-15T05:22:42.095Z,8.71
2023-09-15T05:23:42.568Z,8.71
2023-09-15T05:24:42.274Z,8.74
2023-09-15T05:25:42.385Z,8.74
2023-09-15T05:26:42.440Z,8.79
2023-09-15T05:27:42.517Z,8.82
2023-09-15T05:28:42.643Z,8.81
2023-09-15T05:29:42.692Z,8.84
2023-09-15T05:30:42.735Z,8.88
2023-09-15T05:31:42.868Z,8.92
2023-09-15T05:32:42.943Z,8.92
2023-09-15T05:33:43.007Z,8.88
2023-09-15T05:34:43.027Z,8.89
2023-09-15T05:35:43.091Z,8.91
2023-09-15T05:36:43.148Z,8.97
2023-09-15T05:37:43.228Z,9.02
2023-09-15T05:38:43.347Z,9.03
2023-09-15T05:39:43.369Z,9.03
2023-09-15T05:40:43.424Z,9.02
2023-09-15T05:41:43.537Z,9.04
2023-09-15T05:42:43.633Z,9.08
2023-09-15T05:43:43.650Z,9.13
2023-09-15T05:44:43.770Z,9.14
2023-09-15T05:45:43.845Z,9.19
2023-09-15T05:46:44.001Z,9.23
2023-09-15T05:47:44.119Z,9.25
2023-09-15T05:48:44.108Z,9.29
2023-09-15T05:49:44.201Z,9.32
2023-09-15T05:50:44.236Z,9.37
2023-09-15T05:51:44.332Z,9.43
2023-09-15T05:52:44.452Z,9.46
2023-09-15T05:53:44.486Z,9.47
2023-09-15T05:54:44.588Z,9.51
2023-09-15T05:55:44.677Z,9.51
2023-09-15T05:56:45.526Z,9.56
2023-09-15T05:57:44.797Z,9.59
2023-09-15T05:58:45.103Z,9.59
2023-09-15T05:59:44.971Z,9.61
2023-09-15T06:00:45.081Z,9.66
2023-09-15T06:01:45.210Z,9.68
2023-09-15T06:02:45.263Z,9.72
2023-09-15T06:03:45.297Z,9.74
2023-09-15T06:04:45.372Z,9.80
2023-09-15T06:05:45.453Z,9.86
2023-09-15T06:06:45.577Z,9.87
2023-09-15T06:07:45.636Z,9.89
2023-09-15T06:08:46.058Z,9.92
2023-09-15T06:09:45.785Z,9.94
2023-09-15T06:10:45.869Z,9.95
2023-09-15T06:11:45.971Z,9.99
2023-09-15T06:12:46.074Z,10.01
2023-09-15T06:13:46.125Z,10.09
2023-09-15T06:14:46.224Z,10.12
2023-09-15T06:15:46.381Z,10.16
2023-09-15T06:16:46.458Z,10.19
2023-09-15T06:17:46.545Z,10.23
2023-09-15T06:18:46.857Z,10.28
2023-09-15T06:19:46.670Z,10.34
2023-09-15T06:20:46.778Z,10.40
2023-09-15T06:21:46.921Z,10.41
2023-09-15T06:22:46.938Z,10.44
2023-09-15T06:23:47.002Z,10.49
2023-09-15T06:24:47.087Z,10.54
2023-09-15T06:25:47.189Z,10.57
2023-09-15T06:26:47.325Z,10.60
2023-09-15T06:27:47.390Z,10.61
2023-09-15T06:28:47.759Z,10.63
2023-09-15T06:29:47.559Z,10.67
2023-09-15T06:30:47.624Z,10.71
2023-09-15T06:31:47.728Z,10.75
2023-09-15T06:32:47.831Z,10.82
2023-09-15T06:33:47.876Z,10.87
2023-09-15T06:34:47.984Z,10.92
2023-09-15T06:35:48.048Z,10.96
2023-09-15T06:36:48.159Z,10.97
2023-09-15T06:37:48.248Z,11.02
2023-09-15T06:38:48.582Z,11.07
2023-09-15T06:39:48.376Z,11.11
2023-09-15T06:40:48.428Z,11.12
2023-09-15T06:41:48.507Z,11.18
2023-09-15T06:42:48.624Z,11.19
2023-09-15T06:43:48.688Z,11.23
2023-09-15T06:44:49.313Z,11.27
2023-09-15T06:45:48.833Z,11.30
2023-09-15T06:46:48.965Z,11.33
2023-09-15T06:47:49.001Z,11.37
2023-09-15T06:48:49.272Z,11.44
2023-09-15T06:49:49.136Z,11.48
2023-09-15T06:50:49.690Z,11.51
2023-09-15T06:51:49.347Z,11.57
2023-09-15T06:52:49.446Z,11.62
2023-09-15T06:53:49.498Z,11.63
2023-09-15T06:54:49.610Z,11.69
2023-09-15T06:55:49.703Z,11.75
2023-09-15T06:56:49.806Z,11.81
2023-09-15T06:57:49.865Z,11.86
2023-09-15T06:58:49.964Z,11.90
2023-09-15T06:59:50.082Z,11.94
2023-09-15T07:00:51.044Z,11.94
2023-09-15T07:01:50.287Z,11.99
2023-09-15T07:02:50.354Z,12.07
2023-09-15T07:03:50.390Z,12.12
2023-09-15T07:04:50.593Z,12.18
2023-09-15T07:05:50.528Z,12.21
2023-09-15T07:06:50.997Z,12.25
2023-09-15T07:07:50.693Z,12.28
2023-09-15T07:08:50.802Z,12.32
2023-09-15T07:09:50.866Z,12.37
2023-09-15T07:10:50.955Z,12.40
2023-09-15T07:11:51.083Z,12.46
2023-09-15T07:12:51.145Z,12.50
2023-09-15T07:13:51.819Z,12.57
2023-09-15T07:14:51.332Z,12.61
2023-09-15T07:15:51.408Z,12.67
2023-09-15T07:16:51.590Z,12.76
2023-09-15T07:17:51.588Z,12.82
2023-09-15T07:18:51.636Z,12.86
2023-09-15T07:19:51.695Z,12.93
2023-09-15T07:20:51.807Z,13.00
2023-09-15T07:21:51.918Z,13.08
2023-09-15T07:22:51.962Z,13.13
2023-09-15T07:23:52.019Z,13.19
2023-09-15T07:24:52.145Z,13.25
2023-09-15T07:25:52.240Z,13.28
2023-09-15T07:26:52.328Z,13.37
2023-09-15T07:27:52.409Z,13.41
2023-09-15T07:28:52.483Z,13.47
2023-09-15T07:29:52.571Z,13.54
2023-09-15T07:30:52.673Z,13.59
2023-09-15T07:31:52.853Z,13.63
2023-09-15T07:32:52.873Z,13.71
2023-09-15T07:33:52.908Z,13.77
2023-09-15T07:34:52.986Z,13.79
2023-09-15T07:35:53.076Z,13.86
2023-09-15T07:36:53.122Z,13.92
2023-09-15T07:37:53.249Z,13.96
2023-09-15T07:38:53.312Z,14.00
2023-09-15T07:39:53.369Z,14.05
2023-09-15T07:40:53.480Z,14.12
2023-09-15T07:41:53.551Z,14.17
2023-09-15T07:42:53.720Z,14.25
2023-09-15T07:43:53.736Z,14.30
2023-09-15T07:44:53.864Z,14.33
2023-09-15T07:45:54.060Z,14.43
2023-09-15T07:46:54.050Z,14.50
2023-09-15T07:47:54.564Z,14.59
2023-09-15T07:48:54.220Z,14.63
2023-09-15T07:49:54.259Z,14.69
2023-09-15T07:50:54.333Z,14.79
2023-09-15T07:51:54.433Z,14.86
2023-09-15T07:52:54.474Z,14.96
2023-09-15T07:53:54.592Z,15.03
2023-09-15T07:54:54.695Z,15.10
2023-09-15T07:55:54.759Z,15.14
2023-09-15T07:56:54.832Z,15.19
2023-09-15T07:57:54.949Z,15.24
2023-09-15T07:58:55.001Z,15.33
2023-09-15T07:59:55.104Z,15.40
2023-09-15T08:00:55.224Z,15.44
2023-09-15T08:01:55.314Z,15.54
2023-09-15T08:02:55.383Z,15.62
2023-09-15T08:03:55.482Z,15.68
2023-09-15T08:04:55.657Z,15.72
2023-09-15T08:05:55.591Z,15.79
2023-09-15T08:06:55.671Z,15.86
2023-09-15T08:07:55.728Z,15.92
2023-09-15T08:08:55.825Z,15.94
2023-09-15T08:09:55.949Z,15.98
2023-09-15T08:10:55.992Z,16.04
2023-09-15T08:11:56.046Z,16.10
2023-09-15T08:12:56.168Z,16.20
2023-09-15T08:13:56.220Z,16.33
2023-09-15T08:14:56.317Z,16.42
2023-09-15T08:15:56.526Z,16.51
2023-09-15T08:16:56.497Z,16.47
2023-09-15T08:17:58.078Z,16.47
2023-09-15T08:18:56.621Z,16.50
2023-09-15T08:19:56.685Z,16.54
2023-09-15T08:20:56.761Z,16.57
2023-09-15T08:21:57.653Z,16.68
2023-09-15T08:22:56.930Z,16.75
2023-09-15T08:23:57.152Z,16.83
2023-09-15T08:24:57.159Z,16.97
2023-09-15T08:25:57.287Z,17.06
2023-09-15T08:26:57.242Z,17.19
2023-09-15T08:27:57.382Z,17.26
2023-09-15T08:28:57.466Z,17.26
2023-09-15T08:29:57.545Z,17.30
2023-09-15T08:30:57.631Z,17.42
2023-09-15T08:31:57.690Z,17.51
2023-09-15T08:32:57.805Z,17.56
2023-09-15T08:33:57.865Z,17.52
2023-09-15T08:34:57.922Z,17.49
2023-09-15T08:35:58.146Z,17.44
2023-09-15T08:36:58.178Z,17.56
2023-09-15T08:37:58.186Z,17.68
2023-09-15T08:38:58.272Z,17.82
2023-09-15T08:39:58.424Z,17.95
2023-09-15T08:40:58.469Z,17.98
2023-09-15T08:41:58.560Z,18.04
2023-09-15T08:42:58.671Z,18.07
2023-09-15T08:43:58.724Z,18.15
2023-09-15T08:44:58.825Z,18.19
2023-09-15T08:45:58.923Z,18.33
2023-09-15T08:46:58.998Z,18.49
2023-09-15T08:47:59.035Z,18.55
2023-09-15T08:48:59.240Z,18.65
2023-09-15T08:49:59.189Z,18.81
2023-09-15T08:50:59.342Z,19.04
2023-09-15T08:51:59.405Z,19.21
2023-09-15T08:52:59.444Z,19.45
2023-09-15T08:53:59.494Z,19.58
2023-09-15T08:54:59.546Z,19.69
2023-09-15T08:55:59.646Z,19.85
2023-09-15T08:56:59.761Z,19.94
2023-09-15T08:57:59.830Z,20.13
2023-09-15T08:58:59.943Z,20.31
2023-09-15T08:59:59.954Z,20.47
2023-09-15T09:01:00.082Z,20.72
2023-09-15T09:02:00.318Z,20.97
2023-09-15T09:03:00.314Z,21.17
2023-09-15T09:04:00.375Z,21.36
2023-09-15T09:05:00.427Z,21.52
2023-09-15T09:06:00.476Z,21.76
2023-09-15T09:07:00.664Z,21.88
2023-09-15T09:08:00.705Z,21.89
2023-09-15T09:09:00.770Z,22.06
2023-09-15T09:10:00.867Z,22.10
2023-09-15T09:11:00.937Z,22.02
2023-09-15T09:12:01.010Z,22.13
2023-09-15T09:13:01.174Z,22.23
2023-09-15T09:14:01.267Z,22.15
2023-09-15T09:15:01.280Z,22.32
2023-09-15T09:16:01.493Z,22.45
2023-09-15T09:17:01.543Z,22.59
2023-09-15T09:18:01.628Z,22.63
2023-09-15T09:19:01.739Z,22.84
2023-09-15T09:20:01.711Z,23.06
2023-09-15T09:21:01.813Z,23.13
2023-09-15T09:22:01.947Z,23.28
2023-09-15T09:23:02.000Z,23.43
2023-09-15T09:24:02.023Z,23.69
2023-09-15T09:25:02.652Z,23.69
2023-09-15T09:26:02.202Z,23.50
2023-09-15T09:27:02.267Z,23.27
2023-09-15T09:28:02.391Z,23.36
2023-09-15T09:29:02.445Z,23.32
2023-09-15T09:30:02.547Z,23.31
2023-09-15T09:31:02.649Z,23.25
2023-09-15T09:32:02.710Z,23.12
2023-09-15T09:33:02.802Z,23.17
2023-09-15T09:34:02.930Z,23.37
2023-09-15T09:35:02.938Z,23.69
2023-09-15T09:36:03.015Z,23.95
2023-09-15T09:37:03.097Z,23.93
2023-09-15T09:38:03.386Z,24.21
2023-09-15T09:39:03.274Z,24.43
2023-09-15T09:40:03.369Z,24.54
2023-09-15T09:41:03.450Z,24.51
2023-09-15T09:42:03.590Z,24.55
2023-09-15T09:43:03.623Z,24.80
2023-09-15T09:44:03.703Z,25.26
2023-09-15T09:45:03.780Z,25.48
2023-09-15T09:46:03.901Z,25.62
2023-09-15T09:47:03.951Z,25.85
2023-09-15T09:48:04.113Z,26.26
2023-09-15T09:49:04.173Z,26.70
2023-09-15T09:50:04.229Z,27.17
2023-09-15T09:51:04.370Z,27.44
2023-09-15T09:52:04.401Z,27.64
2023-09-15T09:53:04.476Z,27.78
2023-09-15T09:54:05.046Z,27.89
2023-09-15T09:55:04.657Z,27.68
2023-09-15T09:56:04.758Z,27.87
2023-09-15T09:57:04.876Z,27.78
2023-09-15T09:58:04.939Z,27.47
2023-09-15T09:59:05.060Z,27.36
2023-09-15T10:00:05.162Z,27.51
2023-09-15T10:01:05.236Z,27.65
2023-09-15T10:02:05.347Z,27.83
2023-09-15T10:03:05.552Z,28.00
2023-09-15T10:04:05.465Z,27.95
2023-09-15T10:05:05.522Z,28.19
2023-09-15T10:06:05.647Z,27.98
2023-09-15T10:07:05.698Z,28.00
2023-09-15T10:08:05.795Z,28.33
2023-09-15T10:09:05.965Z,28.64
2023-09-15T10:10:05.921Z,28.11
2023-09-15T10:11:06.018Z,27.71
2023-09-15T10:12:06.156Z,27.64
2023-09-15T10:13:08.260Z,27.77
2023-09-15T10:14:06.318Z,28.08
2023-09-15T10:15:06.420Z,28.67
2023-09-15T10:16:06.485Z,29.12
2023-09-15T10:17:06.527Z,29.59
2023-09-15T10:18:06.676Z,30.12
2023-09-15T10:19:06.714Z,29.82
2023-09-15T10:20:16.025Z,29.27
2023-09-15T10:21:07.007Z,29.05
2023-09-15T10:22:07.045Z,29.19
2023-09-15T10:23:07.098Z,29.24
2023-09-15T10:24:07.360Z,29.10
2023-09-15T10:25:07.272Z,29.14
2023-09-15T10:26:07.339Z,29.42
2023-09-15T10:27:07.460Z,29.68
2023-09-15T10:28:10.334Z,29.34
2023-09-15T10:29:07.866Z,29.29
2023-09-15T10:30:07.767Z,29.39
2023-09-15T10:31:10.557Z,29.84
2023-09-15T10:32:07.877Z,30.47
2023-09-15T10:33:07.982Z,30.83
2023-09-15T10:34:08.065Z,31.15
2023-09-15T10:35:08.069Z,31.47
2023-09-15T10:36:08.279Z,31.70
2023-09-15T10:37:08.280Z,31.87
2023-09-15T10:38:08.389Z,31.28
2023-09-15T10:39:08.516Z,31.20
2023-09-15T10:40:08.520Z,31.71
2023-09-15T10:41:08.590Z,32.31
2023-09-15T10:42:08.774Z,32.48
2023-09-15T10:43:08.848Z,31.89
2023-09-15T10:44:08.889Z,31.18
2023-09-15T10:45:09.026Z,31.37
2023-09-15T10:46:09.109Z,31.85
2023-09-15T10:47:09.139Z,32.31
2023-09-15T10:48:09.322Z,32.75
2023-09-15T10:49:09.326Z,32.95
2023-09-15T10:50:09.401Z,33.43
2023-09-15T10:51:09.616Z,34.01
2023-09-15T10:52:09.553Z,34.38
2023-09-15T10:53:09.642Z,34.60
2023-09-15T10:54:09.772Z,34.86
2023-09-15T10:55:09.828Z,34.89
2023-09-15T10:56:11.879Z,34.13
2023-09-15T10:57:10.102Z,33.67
2023-09-15T10:58:10.024Z,33.49
2023-09-15T10:59:10.109Z,33.50
2023-09-15T11:00:10.340Z,33.94
2023-09-15T11:01:10.290Z,33.28
2023-09-15T11:02:10.379Z,32.96
2023-09-15T11:03:10.584Z,32.92
2023-09-15T11:04:10.586Z,33.34
2023-09-15T11:05:10.669Z,33.58
2023-09-15T11:06:10.745Z,33.64
2023-09-15T11:07:13.781Z,33.62
2023-09-15T11:08:10.919Z,33.90
2023-09-15T11:09:11.018Z,34.14
2023-09-15T11:10:11.090Z,34.39
2023-09-15T11:11:11.134Z,34.39
2023-09-15T11:12:11.239Z,34.64
2023-09-15T11:13:11.288Z,35.23
2023-09-15T11:14:11.450Z,35.98
2023-09-15T11:15:11.542Z,36.61
2023-09-15T11:16:11.749Z,37.17
2023-09-15T11:17:11.747Z,37.42
2023-09-15T11:18:11.749Z,37.68
2023-09-15T11:19:11.773Z,37.67
2023-09-15T11:20:11.886Z,37.67
2023-09-15T11:21:11.960Z,36.68
2023-09-15T11:22:12.062Z,35.73
2023-09-15T11:23:12.108Z,35.30
2023-09-15T11:24:12.207Z,35.51
2023-09-15T11:25:17.736Z,35.76
2023-09-15T11:27:12.506Z,35.63
2023-09-15T11:28:12.551Z,35.64
2023-09-15T11:29:12.601Z,35.45
2023-09-15T11:30:12.759Z,35.46
2023-09-15T11:31:12.762Z,34.92
2023-09-15T11:32:12.889Z,34.20
2023-09-15T11:33:13.086Z,34.18
2023-09-15T11:34:13.101Z,34.02
2023-09-15T11:35:13.155Z,33.95
2023-09-15T11:36:13.979Z,34.51
2023-09-15T11:37:13.255Z,34.67
2023-09-15T11:38:13.315Z,35.34
2023-09-15T11:39:13.469Z,35.24
2023-09-15T11:40:13.580Z,34.21
2023-09-15T11:41:13.833Z,34.08
2023-09-15T11:42:13.823Z,34.18
2023-09-15T11:43:13.920Z,34.77
2023-09-15T11:44:13.862Z,35.22
2023-09-15T11:45:13.971Z,35.23
2023-09-15T11:46:14.079Z,34.70
2023-09-15T11:47:14.160Z,34.62
2023-09-15T11:48:14.287Z,33.89
2023-09-15T11:49:14.277Z,33.68
2023-09-15T11:50:14.379Z,33.67
2023-09-15T11:51:14.511Z,34.10
2023-09-15T11:52:14.575Z,34.16
2023-09-15T11:53:14.662Z,34.70
2023-09-15T11:54:14.717Z,35.56
2023-09-15T11:55:14.777Z,35.90
2023-09-15T11:56:14.941Z,36.31
2023-09-15T11:57:15.024Z,36.89
2023-09-15T11:58:15.037Z,37.55
2023-09-15T11:59:15.083Z,37.87
2023-09-15T12:00:15.264Z,37.14
2023-09-15T12:01:15.303Z,37.11
2023-09-15T12:02:15.405Z,37.48
2023-09-15T12:03:15.760Z,37.78
2023-09-15T12:04:15.628Z,37.32
2023-09-15T12:05:15.662Z,37.10
2023-09-15T12:06:15.708Z,36.40
2023-09-15T12:07:15.804Z,36.00
2023-09-15T12:08:17.271Z,35.80
2023-09-15T12:09:15.940Z,35.71
2023-09-15T12:10:16.032Z,35.49
2023-09-15T12:11:16.107Z,35.53
2023-09-15T12:12:16.196Z,36.08
2023-09-15T12:13:16.178Z,35.89
2023-09-15T12:14:16.286Z,35.49
2023-09-15T12:15:16.498Z,35.45
2023-09-15T12:16:16.505Z,35.78
2023-09-15T12:17:16.573Z,35.24
2023-09-15T12:18:16.700Z,34.67
2023-09-15T12:19:16.763Z,34.23
2023-09-15T12:20:16.843Z,34.06
2023-09-15T12:21:17.059Z,34.47
2023-09-15T12:22:17.037Z,35.22
2023-09-15T12:23:17.075Z,35.19
2023-09-15T12:24:17.171Z,35.14
2023-09-15T12:25:17.225Z,35.37
2023-09-15T12:26:17.381Z,35.71
2023-09-15T12:27:17.452Z,35.98
2023-09-15T12:28:17.518Z,36.27
2023-09-15T12:29:17.614Z,35.89
2023-09-15T12:30:17.692Z,35.29
2023-09-15T12:31:17.772Z,34.57
2023-09-15T12:32:17.861Z,33.74
2023-09-15T12:33:18.030Z,33.65
2023-09-15T12:34:18.119Z,33.53
2023-09-15T12:35:18.168Z,33.80
2023-09-15T12:36:18.289Z,34.20
2023-09-15T12:37:18.303Z,34.55
2023-09-15T12:38:18.381Z,35.04
2023-09-15T12:39:18.550Z,35.24
2023-09-15T12:40:18.667Z,35.86
2023-09-15T12:41:18.651Z,36.81
2023-09-15T12:42:18.788Z,37.58
2023-09-15T12:43:18.827Z,38.11
2023-09-15T12:44:18.907Z,38.50
2023-09-15T12:45:18.998Z,38.33
2023-09-15T12:46:19.149Z,38.49
2023-09-15T12:47:19.248Z,38.83
2023-09-15T12:48:19.237Z,39.03
2023-09-15T12:49:19.315Z,38.95
2023-09-15T12:50:19.435Z,38.06
2023-09-15T12:51:19.547Z,38.34
2023-09-15T12:52:19.588Z,38.15
2023-09-15T12:53:19.678Z,37.71
2023-09-15T12:54:19.839Z,37.48
2023-09-15T12:55:19.934Z,37.21
2023-09-15T12:56:19.951Z,37.55
2023-09-15T12:57:20.067Z,37.80
2023-09-15T12:58:20.168Z,37.63
2023-09-15T12:59:20.255Z,37.55
2023-09-15T13:00:20.350Z,37.87
2023-09-15T13:01:20.380Z,38.08
2023-09-15T13:02:20.549Z,38.26
2023-09-15T13:03:22.563Z,38.15
2023-09-15T13:04:20.734Z,38.19